createdAt,value
2023-08-03T00:00:34.411Z,6.45
2023-08-03T00:03:01.437Z,3.38
2023-08-03T00:05:28.451Z,7.18
2023-08-03T00:07:55.126Z,4.25
2023-08-03T00:10:22.465Z,2.95
2023-08-03T00:12:50.606Z,4.88
2023-08-03T00:15:17.504Z,4.00
2023-08-03T00:17:44.793Z,6.78
2023-08-03T00:20:11.693Z,2.88
2023-08-03T00:22:38.663Z,4.60
2023-08-03T00:25:05.551Z,4.88
2023-08-03T00:27:33.390Z,6.40
2023-08-03T00:30:00.050Z,6.30
2023-08-03T00:32:26.746Z,4.80
2023-08-03T00:34:54.647Z,6.45
2023-08-03T00:37:21.235Z,4.65
2023-08-03T00:39:47.873Z,4.53
2023-08-03T00:42:14.513Z,7.10
2023-08-03T00:44:41.201Z,5.72
2023-08-03T00:47:07.873Z,3.85
2023-08-03T00:49:34.546Z,7.57
2023-08-03T00:52:01.235Z,11.65
2023-08-03T00:54:27.864Z,6.80
2023-08-03T00:56:54.850Z,4.63
2023-08-03T00:59:21.570Z,4.05
2023-08-03T01:01:48.213Z,3.55
2023-08-03T01:04:14.864Z,4.75
2023-08-03T01:06:41.664Z,4.85
2023-08-03T01:09:08.427Z,4.65
2023-08-03T01:11:35.439Z,4.13
2023-08-03T01:14:02.185Z,3.30
2023-08-03T01:16:29.117Z,5.07
2023-08-03T01:18:56.130Z,2.97
2023-08-03T01:21:23.412Z,3.65
2023-08-03T01:23:50.033Z,3.72
2023-08-03T01:26:16.724Z,3.92
2023-08-03T01:28:43.360Z,3.65
2023-08-03T01:31:10.052Z,2.60
2023-08-03T01:33:36.759Z,4.30
2023-08-03T01:36:04.059Z,4.97
2023-08-03T01:38:30.687Z,3.38
2023-08-03T01:40:57.280Z,3.00
2023-08-03T01:43:23.947Z,5.57
2023-08-03T01:45:50.611Z,3.55
2023-08-03T01:48:17.251Z,3.97
2023-08-03T01:50:43.887Z,2.63
2023-08-03T01:53:10.521Z,7.43
2023-08-03T01:55:37.225Z,4.70
2023-08-03T01:58:03.860Z,4.85
2023-08-03T02:00:30.477Z,4.20
2023-08-03T02:02:57.050Z,1.85
2023-08-03T02:05:23.688Z,2.35
2023-08-03T02:07:57.167Z,3.47
2023-08-03T02:10:24.778Z,3.60
2023-08-03T02:12:51.936Z,5.50
2023-08-03T02:15:18.983Z,4.55
2023-08-03T02:17:46.005Z,3.45
2023-08-03T02:20:13.057Z,4.53
2023-08-03T02:22:40.039Z,5.10
2023-08-03T02:25:07.245Z,2.03
2023-08-03T02:27:33.906Z,1.85
2023-08-03T02:30:00.572Z,4.72
2023-08-03T02:32:28.720Z,3.25
2023-08-03T02:34:56.326Z,4.05
2023-08-03T02:37:22.986Z,1.70
2023-08-03T02:39:49.572Z,2.85
2023-08-03T02:42:16.195Z,2.17
2023-08-03T02:44:42.820Z,3.15
2023-08-03T02:47:09.526Z,1.98
2023-08-03T02:49:36.137Z,4.97
2023-08-03T02:52:34.188Z,2.67
2023-08-03T02:55:00.945Z,2.50
2023-08-03T02:57:27.517Z,3.90
2023-08-03T02:59:54.108Z,2.72
2023-08-03T03:02:21.100Z,4.32
2023-08-03T03:04:47.823Z,4.32
2023-08-03T03:07:14.470Z,6.80
2023-08-03T03:09:41.162Z,6.53
2023-08-03T03:12:08.343Z,8.05
2023-08-03T03:14:37.717Z,6.03
2023-08-03T03:17:04.934Z,8.32
2023-08-03T03:19:31.626Z,3.95
2023-08-03T03:21:58.321Z,8.00
2023-08-03T03:24:24.890Z,5.28
2023-08-03T03:26:51.472Z,6.13
2023-08-03T03:29:18.142Z,5.13
2023-08-03T03:31:45.005Z,7.30
2023-08-03T03:34:11.875Z,7.97
2023-08-03T03:36:38.453Z,8.10
2023-08-03T03:39:05.105Z,5.18
2023-08-03T03:41:31.726Z,9.02
2023-08-03T03:43:58.421Z,7.07
2023-08-03T03:46:25.089Z,7.88
2023-08-03T03:48:51.831Z,5.70
2023-08-03T03:51:21.231Z,6.75
2023-08-03T03:53:47.863Z,6.90
2023-08-03T03:56:14.591Z,7.35
2023-08-03T03:58:41.488Z,3.80
2023-08-03T04:01:08.208Z,6.60
2023-08-03T04:03:34.893Z,4.85
2023-08-03T04:06:01.479Z,5.28
2023-08-03T04:08:28.167Z,4.03
2023-08-03T04:10:54.750Z,3.58
2023-08-03T04:13:21.332Z,4.60
2023-08-03T04:15:47.964Z,4.40
2023-08-03T04:18:16.007Z,4.32
2023-08-03T04:20:42.637Z,4.47
2023-08-03T04:23:09.219Z,6.07
2023-08-03T04:25:36.112Z,6.10
2023-08-03T04:28:02.747Z,5.05
2023-08-03T04:30:30.044Z,5.38
2023-08-03T04:32:56.648Z,4.18
2023-08-03T04:35:23.505Z,7.05
2023-08-03T04:37:50.108Z,6.10
2023-08-03T04:40:16.705Z,5.15
2023-08-03T04:42:43.303Z,7.63
2023-08-03T04:45:10.432Z,4.65
2023-08-03T04:47:37.080Z,6.15
2023-08-03T04:50:03.743Z,9.82
2023-08-03T04:52:30.361Z,6.05
2023-08-03T04:54:57.002Z,10.00
2023-08-03T04:57:23.616Z,6.82
2023-08-03T04:59:50.270Z,10.48
2023-08-03T05:02:16.852Z,6.28
2023-08-03T05:04:43.433Z,11.45
2023-08-03T05:07:09.999Z,10.93
2023-08-03T05:09:37.096Z,14.18
2023-08-03T05:12:03.875Z,15.45
2023-08-03T05:14:31.219Z,13.38
2023-08-03T05:16:57.837Z,11.30
2023-08-03T05:19:24.512Z,11.05
2023-08-03T05:21:51.225Z,11.73
2023-08-03T05:24:17.802Z,9.27
2023-08-03T05:26:44.385Z,17.55
2023-08-03T05:29:11.030Z,19.27
2023-08-03T05:31:37.633Z,9.45
2023-08-03T05:34:04.318Z,13.25
2023-08-03T05:36:30.918Z,14.05
2023-08-03T05:38:57.642Z,11.45
2023-08-03T05:41:26.804Z,13.05
2023-08-03T05:43:53.554Z,13.68
2023-08-03T05:46:21.699Z,9.18
2023-08-03T05:48:50.622Z,11.93
2023-08-03T05:51:28.314Z,10.63
2023-08-03T05:53:56.233Z,13.77
2023-08-03T05:56:23.667Z,9.90
2023-08-03T05:58:51.363Z,12.63
2023-08-03T06:01:22.459Z,9.67
2023-08-03T06:03:52.308Z,12.40
2023-08-03T06:06:20.254Z,10.30
2023-08-03T06:08:54.623Z,8.93
2023-08-03T06:11:41.853Z,10.57
2023-08-03T06:14:16.816Z,9.32
2023-08-03T06:16:45.682Z,7.57
2023-08-03T06:19:12.471Z,13.25
2023-08-03T06:21:39.138Z,7.25
2023-08-03T06:24:06.117Z,10.15
2023-08-03T06:26:34.451Z,8.40
2023-08-03T06:29:03.168Z,10.70
2023-08-03T06:31:35.694Z,9.93
2023-08-03T06:34:03.482Z,10.52
2023-08-03T06:36:30.337Z,4.93
2023-08-03T06:38:57.833Z,6.55
2023-08-03T06:41:26.241Z,7.43
2023-08-03T06:43:53.622Z,10.13
2023-08-03T06:46:20.443Z,6.60
2023-08-03T06:48:47.863Z,6.97
2023-08-03T06:51:14.724Z,6.90
2023-08-03T06:53:42.099Z,7.60
2023-08-03T06:56:09.030Z,5.97
2023-08-03T06:58:37.861Z,7.32
2023-08-03T07:01:04.597Z,7.60
2023-08-03T07:03:31.721Z,5.22
2023-08-03T07:05:58.719Z,5.40
2023-08-03T07:08:25.320Z,8.25
2023-08-03T07:10:51.950Z,5.05
2023-08-03T07:13:18.584Z,6.25
2023-08-03T07:15:45.423Z,4.13
2023-08-03T07:18:13.345Z,7.38
2023-08-03T07:20:40.054Z,7.75
2023-08-03T07:23:08.813Z,7.50
2023-08-03T07:25:36.143Z,6.43
2023-08-03T07:28:02.947Z,6.78
2023-08-03T07:30:32.439Z,4.78
2023-08-03T07:32:59.972Z,7.20
2023-08-03T07:35:26.672Z,7.75
2023-08-03T07:37:53.330Z,6.20
2023-08-03T07:40:20.069Z,5.38
2023-08-03T07:42:46.811Z,5.38
2023-08-03T07:45:13.460Z,5.28
2023-08-03T07:47:40.078Z,4.93
2023-08-03T07:50:07.525Z,3.38
2023-08-03T07:52:35.109Z,5.72
2023-08-03T07:55:01.762Z,3.70
2023-08-03T07:57:28.358Z,3.35
2023-08-03T07:59:55.518Z,4.13
2023-08-03T08:02:23.059Z,3.38
2023-08-03T08:04:52.931Z,4.25
2023-08-03T08:07:19.931Z,6.78
2023-08-03T08:09:46.903Z,2.60
2023-08-03T08:12:13.791Z,4.25
2023-08-03T08:14:40.496Z,3.13
2023-08-03T08:17:13.432Z,2.40
2023-08-03T08:19:41.199Z,2.03
2023-08-03T08:22:17.209Z,1.77
2023-08-03T08:24:45.265Z,2.78
2023-08-03T08:27:12.587Z,1.98
2023-08-03T08:29:39.591Z,2.92
2023-08-03T08:32:07.014Z,2.33
2023-08-03T08:34:33.788Z,4.57
2023-08-03T08:37:00.492Z,2.65
2023-08-03T08:39:28.939Z,1.77
2023-08-03T08:41:55.616Z,2.70
2023-08-03T08:44:22.258Z,2.15
2023-08-03T08:46:49.505Z,2.83
2023-08-03T08:54:19.532Z,3.97
2023-08-03T09:01:52.884Z,4.22
2023-08-03T09:04:33.776Z,3.13
2023-08-03T09:07:01.996Z,4.70
2023-08-03T09:09:33.374Z,3.17
2023-08-03T09:12:00.439Z,3.13
2023-08-03T09:14:27.351Z,5.10
2023-08-03T09:16:54.219Z,4.13
2023-08-03T09:19:40.097Z,5.95
2023-08-03T09:25:07.655Z,4.95
2023-08-03T09:32:38.011Z,3.78
2023-08-03T09:35:26.887Z,5.13
2023-08-03T09:37:55.620Z,4.22
2023-08-03T09:42:51.558Z,3.80
2023-08-03T09:47:51.050Z,3.70
2023-08-03T09:50:17.865Z,3.30
2023-08-03T09:52:51.399Z,3.30
2023-08-03T09:55:29.631Z,3.90
2023-08-03T09:58:07.454Z,3.92
2023-08-03T10:00:34.968Z,4.13
2023-08-03T10:03:08.797Z,6.32
2023-08-03T10:05:40.068Z,3.97
2023-08-03T10:08:07.781Z,5.45
2023-08-03T10:10:38.211Z,4.00
2023-08-03T10:13:08.404Z,7.47
2023-08-03T10:15:38.081Z,7.53
2023-08-03T10:18:07.005Z,5.55
2023-08-03T10:23:07.817Z,4.90
2023-08-03T10:25:34.406Z,7.20
2023-08-03T10:28:14.564Z,6.63
2023-08-03T10:31:05.980Z,8.00
2023-08-03T10:34:05.213Z,6.07
2023-08-03T10:36:42.120Z,5.72
2023-08-03T10:39:12.885Z,7.40
2023-08-03T10:41:47.539Z,4.70
2023-08-03T10:44:14.478Z,4.10
2023-08-03T10:46:42.370Z,7.95
2023-08-03T10:49:24.621Z,4.93
2023-08-03T10:52:14.700Z,7.13
2023-08-03T10:54:41.367Z,6.95
2023-08-03T10:57:10.053Z,6.68
2023-08-03T10:59:57.860Z,5.63
2023-08-03T11:02:32.984Z,5.05
2023-08-03T11:05:08.559Z,6.18
2023-08-03T11:07:38.001Z,5.65
2023-08-03T11:10:11.164Z,7.07
2023-08-03T11:12:38.961Z,6.63
2023-08-03T11:15:07.086Z,5.07
2023-08-03T11:17:35.546Z,6.30
2023-08-03T11:22:31.005Z,6.40
2023-08-03T11:25:02.240Z,6.93
2023-08-03T11:27:28.902Z,6.63
2023-08-03T11:29:56.394Z,8.07
2023-08-03T11:32:30.977Z,7.07
2023-08-03T11:35:05.738Z,6.97
2023-08-03T11:37:33.966Z,10.40
2023-08-03T11:40:02.039Z,7.65
2023-08-03T11:42:29.394Z,6.82
2023-08-03T11:44:57.283Z,7.57
2023-08-03T11:47:24.377Z,5.78
2023-08-03T11:49:55.986Z,7.05
2023-08-03T11:52:23.325Z,8.10
2023-08-03T11:54:50.480Z,5.38
2023-08-03T11:57:35.680Z,6.13
2023-08-03T12:00:03.895Z,8.40
2023-08-03T12:02:40.722Z,6.43
2023-08-03T12:07:38.246Z,6.20
2023-08-03T12:10:17.474Z,6.10
2023-08-03T12:15:12.190Z,5.68
2023-08-03T12:17:39.428Z,5.50
2023-08-03T12:20:06.944Z,5.78
2023-08-03T12:22:34.382Z,4.53
2023-08-03T12:25:01.079Z,5.20
2023-08-03T12:27:27.699Z,4.20
2023-08-03T12:29:54.277Z,3.55
2023-08-03T12:32:21.085Z,5.43
2023-08-03T12:34:47.673Z,3.90
2023-08-03T12:37:16.771Z,3.38
2023-08-03T12:39:43.726Z,4.40
2023-08-03T12:42:10.394Z,2.70
2023-08-03T12:44:36.988Z,4.57
2023-08-03T12:47:08.832Z,3.22
2023-08-03T12:49:37.627Z,2.97
2023-08-03T12:52:04.616Z,4.55
2023-08-03T12:54:31.656Z,4.88
2023-08-03T12:56:58.335Z,3.08
2023-08-03T12:59:25.053Z,3.58
2023-08-03T13:01:52.726Z,5.43
2023-08-03T13:04:19.419Z,2.55
2023-08-03T13:06:46.306Z,5.72
2023-08-03T13:09:13.126Z,4.38
2023-08-03T13:11:39.727Z,3.08
2023-08-03T13:14:06.422Z,3.42
2023-08-03T13:16:33.276Z,1.85
2023-08-03T13:18:59.969Z,2.92
2023-08-03T13:21:26.616Z,2.03
2023-08-03T13:23:53.258Z,2.55
2023-08-03T13:26:19.936Z,3.30
2023-08-03T13:28:51.568Z,2.75
2023-08-03T13:31:19.826Z,5.25
2023-08-03T13:33:46.616Z,11.93
2023-08-03T13:36:13.238Z,2.85
2023-08-03T13:38:39.838Z,5.65
2023-08-03T13:41:06.678Z,2.10
2023-08-03T13:43:34.081Z,2.45
2023-08-03T13:46:00.868Z,3.15
2023-08-03T13:48:28.301Z,3.38
2023-08-03T13:50:56.495Z,3.97
2023-08-03T13:53:24.627Z,4.70
2023-08-03T13:55:51.325Z,5.38
2023-08-03T13:58:30.301Z,4.30
2023-08-03T14:01:14.333Z,2.72
2023-08-03T14:03:41.696Z,4.57
2023-08-03T14:21:18.524Z,6.78
2023-08-03T14:24:01.739Z,4.85
2023-08-03T14:26:28.721Z,7.32
2023-08-03T14:31:24.944Z,4.05
2023-08-03T14:33:51.572Z,6.80
2023-08-03T14:36:18.247Z,5.88
2023-08-03T14:38:44.880Z,6.35
2023-08-03T14:41:16.274Z,3.38
2023-08-03T14:43:44.780Z,9.10
2023-08-03T14:46:15.781Z,5.40
2023-08-03T14:48:47.569Z,1.85
2023-08-03T14:53:44.133Z,3.47
2023-08-03T14:58:40.474Z,4.97
2023-08-03T15:01:08.763Z,2.80
2023-08-03T15:03:38.280Z,6.57
2023-08-03T15:06:18.338Z,4.15
2023-08-03T15:08:45.531Z,2.40
2023-08-03T15:11:12.785Z,4.20
2023-08-03T15:13:39.744Z,2.00
2023-08-03T15:18:43.199Z,2.33
2023-08-03T15:21:24.167Z,3.40
2023-08-03T15:23:53.767Z,3.58
2023-08-03T15:26:24.404Z,3.35
2023-08-03T15:28:58.317Z,6.40
2023-08-03T15:31:26.282Z,3.20
2023-08-03T15:33:53.658Z,3.58
2023-08-03T15:36:35.100Z,3.25
2023-08-03T15:41:30.993Z,4.20
2023-08-03T15:43:58.991Z,4.60
2023-08-03T15:46:38.148Z,4.03
2023-08-03T15:49:13.003Z,3.30
2023-08-03T15:51:46.975Z,5.05
2023-08-03T15:54:20.626Z,4.57
2023-08-03T15:56:48.334Z,4.55
2023-08-03T15:59:15.380Z,6.20
2023-08-03T16:01:42.116Z,4.38
2023-08-03T16:04:08.806Z,3.65
2023-08-03T16:06:35.421Z,4.43
2023-08-03T16:09:02.023Z,5.53
2023-08-03T16:11:51.492Z,5.55
2023-08-03T16:14:15.260Z,8.15
2023-08-03T16:16:41.975Z,2.88
2023-08-03T16:19:08.727Z,4.72
2023-08-03T16:21:35.924Z,4.18
2023-08-03T16:24:03.133Z,4.65
2023-08-03T16:26:30.070Z,5.97
2023-08-03T16:28:56.984Z,2.80
2023-08-03T16:31:26.475Z,3.42
2023-08-03T16:33:54.576Z,4.75
2023-08-03T16:36:37.944Z,2.50
2023-08-03T16:39:04.799Z,7.78
2023-08-03T16:41:31.666Z,5.05
2023-08-03T16:43:58.359Z,8.43
2023-08-03T16:46:25.170Z,4.97
2023-08-03T16:48:51.882Z,4.45
2023-08-03T16:51:18.609Z,3.40
2023-08-03T16:53:45.297Z,3.55
2023-08-03T16:56:12.468Z,2.97
2023-08-03T16:58:39.123Z,6.20
2023-08-03T17:01:05.794Z,6.72
2023-08-03T17:03:32.514Z,3.50
2023-08-03T17:05:59.203Z,7.40
2023-08-03T17:08:26.052Z,7.65
2023-08-03T17:10:52.771Z,3.35
2023-08-03T17:13:19.354Z,4.80
2023-08-03T17:15:46.616Z,7.07
2023-08-03T17:18:13.847Z,4.93
2023-08-03T17:20:40.526Z,7.20
2023-08-03T17:23:08.349Z,7.80
2023-08-03T17:25:35.178Z,4.72
2023-08-03T17:28:01.943Z,9.60
2023-08-03T17:30:29.138Z,5.15
2023-08-03T17:32:55.813Z,5.57
2023-08-03T17:35:22.450Z,8.60
2023-08-03T17:37:49.037Z,5.90
2023-08-03T17:40:15.782Z,4.85
2023-08-03T17:42:42.440Z,4.75
2023-08-03T17:45:09.792Z,4.70
2023-08-03T17:47:36.384Z,5.47
2023-08-03T17:50:06.926Z,5.40
2023-08-03T17:52:33.628Z,6.03
2023-08-03T17:55:00.384Z,3.92
2023-08-03T17:57:29.248Z,3.03
2023-08-03T17:59:57.455Z,5.05
2023-08-03T18:02:24.282Z,4.60
2023-08-03T18:04:52.247Z,3.95
2023-08-03T18:07:19.291Z,4.07
2023-08-03T18:09:45.969Z,2.53
2023-08-03T18:12:13.117Z,3.15
2023-08-03T18:14:39.810Z,6.13
2023-08-03T18:17:06.738Z,6.45
2023-08-03T18:19:33.434Z,3.80
2023-08-03T18:22:00.138Z,2.17
2023-08-03T18:24:26.851Z,5.07
2023-08-03T18:26:53.498Z,3.45
2023-08-03T18:29:20.077Z,2.60
2023-08-03T18:31:46.713Z,3.08
2023-08-03T18:34:13.368Z,3.20
2023-08-03T18:36:40.171Z,3.30
2023-08-03T18:39:07.069Z,3.47
2023-08-03T18:41:33.683Z,5.55
2023-08-03T18:44:00.311Z,6.95
2023-08-03T18:46:27.173Z,4.10
2023-08-03T18:48:55.255Z,2.90
2023-08-03T18:51:23.114Z,4.75
2023-08-03T18:53:51.663Z,4.65
2023-08-03T18:58:54.898Z,3.60
2023-08-03T19:01:22.098Z,5.15
2023-08-03T19:03:50.127Z,6.20
2023-08-03T19:06:17.689Z,4.97
2023-08-03T19:08:45.553Z,5.70
2023-08-03T19:11:13.024Z,4.10
2023-08-03T19:13:41.566Z,2.95
2023-08-03T19:18:34.774Z,4.13
2023-08-03T19:21:01.376Z,5.35
2023-08-03T19:23:28.205Z,5.63
2023-08-03T19:25:56.776Z,5.13
2023-08-03T19:30:50.637Z,7.75
2023-08-03T19:33:17.407Z,8.07
2023-08-03T19:35:45.600Z,5.85
2023-08-03T19:38:13.098Z,4.72
2023-08-03T19:40:40.406Z,9.80
2023-08-03T19:43:07.737Z,14.88
2023-08-03T19:45:34.941Z,5.40
2023-08-03T19:48:01.687Z,8.45
2023-08-03T19:50:29.117Z,14.13
2023-08-03T19:55:29.630Z,7.82
2023-08-03T20:10:35.172Z,9.27
2023-08-03T20:20:32.259Z,11.98
2023-08-03T20:22:58.923Z,8.48
2023-08-03T20:25:26.274Z,12.27
2023-08-03T20:27:53.757Z,11.30
2023-08-03T20:30:20.534Z,11.60
2023-08-03T20:32:47.195Z,10.65
2023-08-03T20:35:13.809Z,10.55
2023-08-03T20:37:42.311Z,13.07
2023-08-03T20:40:09.375Z,15.55
2023-08-03T20:45:06.309Z,7.70
2023-08-03T20:52:32.059Z,11.45
2023-08-03T20:54:58.701Z,9.48
2023-08-03T20:57:25.348Z,13.43
2023-08-03T20:59:52.078Z,9.75
2023-08-03T21:02:18.748Z,10.98
2023-08-03T21:04:49.702Z,12.70
2023-08-03T21:07:16.610Z,9.15
2023-08-03T21:10:50.313Z,9.18
2023-08-03T21:12:32.134Z,11.70
2023-08-03T21:14:58.815Z,8.00
2023-08-03T21:17:25.436Z,9.90
2023-08-03T21:19:52.116Z,10.65
2023-08-03T21:22:19.315Z,10.23
2023-08-03T21:24:46.020Z,11.50
2023-08-03T21:27:12.679Z,12.05
2023-08-03T21:29:39.328Z,10.23
2023-08-03T21:32:06.443Z,10.90
2023-08-03T21:34:33.120Z,13.13
2023-08-03T21:36:59.748Z,12.40
2023-08-03T21:39:26.403Z,8.52
2023-08-03T21:41:53.274Z,11.32
2023-08-03T21:44:19.874Z,12.98
2023-08-03T21:46:46.491Z,13.48
2023-08-03T21:49:13.129Z,18.35
2023-08-03T21:51:39.796Z,14.00
2023-08-03T21:54:06.494Z,14.52
2023-08-03T21:56:33.102Z,12.40
2023-08-03T21:58:59.789Z,10.38
2023-08-03T22:01:28.107Z,11.80
2023-08-03T22:06:22.258Z,11.63
2023-08-03T22:08:49.485Z,11.50
2023-08-03T22:11:19.904Z,15.32
2023-08-03T22:13:47.058Z,15.60
2023-08-03T22:16:14.700Z,17.17
2023-08-03T22:18:41.375Z,12.37
2023-08-03T22:21:09.084Z,13.18
2023-08-03T22:23:35.751Z,10.23
2023-08-03T22:26:02.361Z,10.05
2023-08-03T22:28:28.993Z,10.88
2023-08-03T22:30:55.620Z,11.25
2023-08-03T22:33:25.110Z,9.00
2023-08-03T22:35:51.751Z,14.93
2023-08-03T22:38:18.366Z,13.65
2023-08-03T22:40:45.012Z,11.10
2023-08-03T22:43:11.614Z,8.13
2023-08-03T22:45:41.652Z,14.27
2023-08-03T22:48:12.437Z,16.92
2023-08-03T22:50:39.950Z,13.43
2023-08-03T22:53:06.718Z,12.18
2023-08-03T22:55:34.743Z,10.88
2023-08-03T22:58:02.286Z,11.23
2023-08-03T23:00:32.592Z,12.93
2023-08-03T23:02:59.351Z,12.18
2023-08-03T23:05:26.321Z,12.60
2023-08-03T23:07:52.956Z,10.93
2023-08-03T23:10:19.690Z,11.88
2023-08-03T23:12:46.284Z,18.40
2023-08-03T23:15:12.889Z,8.57
2023-08-03T23:17:39.528Z,11.05
2023-08-03T23:20:06.823Z,10.23
2023-08-03T23:22:33.544Z,11.80
2023-08-03T23:25:00.248Z,13.00
2023-08-03T23:27:26.851Z,13.02
2023-08-03T23:29:53.487Z,10.57
2023-08-03T23:32:20.073Z,12.98
2023-08-03T23:34:46.905Z,10.25
2023-08-03T23:37:13.544Z,13.60
2023-08-03T23:39:40.154Z,15.10
2023-08-03T23:42:06.998Z,9.50
2023-08-03T23:44:33.583Z,13.38
2023-08-03T23:47:00.206Z,9.88
2023-08-03T23:49:26.782Z,7.47
2023-08-03T23:51:53.390Z,10.52
2023-08-03T23:54:19.975Z,8.43
2023-08-03T23:56:46.601Z,9.93
2023-08-03T23:59:13.261Z,11.15
